sensor_id;sensor_type;location;lat;lon;timestamp;pressure;altitude;pressure_sealevel;temperature;humidity
4836;BME280;66719;51.226;6.902;2023-03-04T00:02:03;101750.59;;;2.66;100.00
4836;BME280;66719;51.226;6.902;2023-03-04T00:04:29;101750.59;;;2.66;100.00
4836;BME280;66719;51.226;6.902;2023-03-04T00:06:56;101754.97;;;2.69;100.00
4836;BME280;66719;51.226;6.902;2023-03-04T00:09:23;101756.75;;;2.70;100.00
4836;BME280;66719;51.226;6.902;2023-03-04T00:11:49;101750.78;;;2.72;100.00
4836;BME280;66719;51.226;6.902;2023-03-04T00:14:16;101757.69;;;2.73;100.00
4836;BME280;66719;51.226;6.902;2023-03-04T00:16:42;101756.00;;;2.74;100.00
4836;BME280;66719;51.226;6.902;2023-03-04T00:19:09;101753.44;;;2.75;100.00
4836;BME280;66719;51.226;6.902;2023-03-04T00:21:36;101752.56;;;2.75;100.00
4836;BME280;66719;51.226;6.902;2023-03-04T00:24:03;101749.16;;;2.76;100.00
4836;BME280;66719;51.226;6.902;2023-03-04T00:26:29;101750.06;;;2.78;100.00
4836;BME280;66719;51.226;6.902;2023-03-04T00:28:56;101747.47;;;2.78;100.00
4836;BME280;66719;51.226;6.902;2023-03-04T00:31:22;101747.44;;;2.76;100.00
4836;BME280;66719;51.226;6.902;2023-03-04T00:33:49;101739.72;;;2.78;100.00
4836;BME280;66719;51.226;6.902;2023-03-04T00:36:15;101735.38;;;2.77;100.00
4836;BME280;66719;51.226;6.902;2023-03-04T00:38:42;101735.47;;;2.78;100.00
4836;BME280;66719;51.226;6.902;2023-03-04T00:41:08;101728.56;;;2.79;100.00
4836;BME280;66719;51.226;6.902;2023-03-04T00:43:35;101729.38;;;2.78;100.00
4836;BME280;66719;51.226;6.902;2023-03-04T00:46:01;101730.31;;;2.80;100.00
4836;BME280;66719;51.226;6.902;2023-03-04T00:48:28;101721.69;;;2.79;100.00
4836;BME280;66719;51.226;6.902;2023-03-04T00:50:54;101732.06;;;2.81;100.00
4836;BME280;66719;51.226;6.902;2023-03-04T00:53:21;101729.50;;;2.81;100.00
4836;BME280;66719;51.226;6.902;2023-03-04T00:55:49;101725.19;;;2.81;100.00
4836;BME280;66719;51.226;6.902;2023-03-04T00:58:16;101733.56;;;2.73;100.00
4836;BME280;66719;51.226;6.902;2023-03-04T01:00:42;101730.97;;;2.73;100.00
4836;BME280;66719;51.226;6.902;2023-03-04T01:03:09;101716.34;;;2.73;100.00
4836;BME280;66719;51.226;6.902;2023-03-04T01:05:35;101719.84;;;2.75;100.00
4836;BME280;66719;51.226;6.902;2023-03-04T01:08:03;101722.34;;;2.72;100.00
4836;BME280;66719;51.226;6.902;2023-03-04T01:10:30;101713.72;;;2.72;100.00
4836;BME280;66719;51.226;6.902;2023-03-04T01:12:57;101717.22;;;2.74;100.00
4836;BME280;66719;51.226;6.902;2023-03-04T01:15:23;101718.09;;;2.74;100.00
4836;BME280;66719;51.226;6.902;2023-03-04T01:17:50;101714.66;;;2.75;100.00
4836;BME280;66719;51.226;6.902;2023-03-04T01:20:16;101715.53;;;2.76;100.00
4836;BME280;66719;51.226;6.902;2023-03-04T01:22:43;101715.50;;;2.74;100.00
4836;BME280;66719;51.226;6.902;2023-03-04T01:25:09;101713.00;;;2.77;100.00
4836;BME280;66719;51.226;6.902;2023-03-04T01:27:36;101707.91;;;2.79;100.00
4836;BME280;66719;51.226;6.902;2023-03-04T01:30:03;101701.00;;;2.79;100.00
4836;BME280;66719;51.226;6.902;2023-03-04T01:32:29;101705.38;;;2.82;100.00
4836;BME280;66719;51.226;6.902;2023-03-04T01:34:56;101701.88;;;2.80;100.00
4836;BME280;66719;51.226;6.902;2023-03-04T01:37:22;101702.75;;;2.80;100.00
4836;BME280;66719;51.226;6.902;2023-03-04T01:39:49;101702.81;;;2.82;100.00
4836;BME280;66719;51.226;6.902;2023-03-04T01:42:19;101698.44;;;2.79;100.00
4836;BME280;66719;51.226;6.902;2023-03-04T01:44:47;101698.28;;;2.75;100.00
4836;BME280;66719;51.226;6.902;2023-03-04T01:47:15;101695.69;;;2.75;100.00
4836;BME280;66719;51.226;6.902;2023-03-04T01:49:42;101693.09;;;2.75;100.00
4836;BME280;66719;51.226;6.902;2023-03-04T01:52:12;101688.81;;;2.75;100.00
4836;BME280;66719;51.226;6.902;2023-03-04T01:54:39;101687.06;;;2.74;100.00
4836;BME280;66719;51.226;6.902;2023-03-04T01:57:21;101685.38;;;2.76;100.00
4836;BME280;66719;51.226;6.902;2023-03-04T02:02:37;101674.16;;;2.76;100.00
4836;BME280;66719;51.226;6.902;2023-03-04T02:05:04;101680.19;;;2.75;100.00
4836;BME280;66719;51.226;6.902;2023-03-04T02:07:30;101676.72;;;2.74;100.00
4836;BME280;66719;51.226;6.902;2023-03-04T02:09:56;101671.56;;;2.74;100.00
4836;BME280;66719;51.226;6.902;2023-03-04T02:12:23;101670.69;;;2.74;100.00
4836;BME280;66719;51.226;6.902;2023-03-04T02:14:50;101670.69;;;2.74;100.00
4836;BME280;66719;51.226;6.902;2023-03-04T02:17:16;101674.22;;;2.77;100.00
4836;BME280;66719;51.226;6.902;2023-03-04T02:19:57;101672.34;;;2.72;100.00
4836;BME280;66719;51.226;6.902;2023-03-04T02:22:27;101672.34;;;2.72;100.00
4836;BME280;66719;51.226;6.902;2023-03-04T02:25:02;101667.19;;;2.72;100.00
4836;BME280;66719;51.226;6.902;2023-03-04T02:27:32;101667.25;;;2.75;100.00
4836;BME280;66719;51.226;6.902;2023-03-04T02:29:58;101669.00;;;2.76;100.00
4836;BME280;66719;51.226;6.902;2023-03-04T02:32:25;101662.13;;;2.76;100.00
4836;BME280;66719;51.226;6.902;2023-03-04T02:34:52;101663.84;;;2.76;100.00
4836;BME280;66719;51.226;6.902;2023-03-04T02:37:18;101657.78;;;2.75;100.00
4836;BME280;66719;51.226;6.902;2023-03-04T02:39:46;101660.38;;;2.75;100.00
4836;BME280;66719;51.226;6.902;2023-03-04T02:42:14;101659.53;;;2.76;100.00
4836;BME280;66719;51.226;6.902;2023-03-04T02:44:43;101666.47;;;2.77;100.00
4836;BME280;66719;51.226;6.902;2023-03-04T02:47:14;101660.53;;;2.80;100.00
4836;BME280;66719;51.226;6.902;2023-03-04T02:49:43;101652.81;;;2.81;100.00
4836;BME280;66719;51.226;6.902;2023-03-04T02:52:14;101650.25;;;2.83;100.00
4836;BME280;66719;51.226;6.902;2023-03-04T02:54:42;101659.75;;;2.84;100.00
4836;BME280;66719;51.226;6.902;2023-03-04T02:57:10;101643.41;;;2.85;100.00
4836;BME280;66719;51.226;6.902;2023-03-04T02:59:38;101645.13;;;2.84;100.00
4836;BME280;66719;51.226;6.902;2023-03-04T03:02:06;101644.22;;;2.82;100.00
4836;BME280;66719;51.226;6.902;2023-03-04T03:04:35;101642.53;;;2.84;100.00
4836;BME280;66719;51.226;6.902;2023-03-04T03:07:02;101641.66;;;2.84;100.00
4836;BME280;66719;51.226;6.902;2023-03-04T03:09:29;101638.19;;;2.83;100.00
4836;BME280;66719;51.226;6.902;2023-03-04T03:11:55;101640.81;;;2.85;100.00
4836;BME280;66719;51.226;6.902;2023-03-04T03:14:22;101627.88;;;2.85;100.00
4836;BME280;66719;51.226;6.902;2023-03-04T03:16:48;101628.75;;;2.86;100.00
4836;BME280;66719;51.226;6.902;2023-03-04T03:19:15;101634.81;;;2.86;100.00
4836;BME280;66719;51.226;6.902;2023-03-04T03:21:41;101628.84;;;2.87;100.00
4836;BME280;66719;51.226;6.902;2023-03-04T03:24:07;101632.19;;;2.84;100.00
4836;BME280;66719;51.226;6.902;2023-03-04T03:26:34;101630.47;;;2.85;100.00
4836;BME280;66719;51.226;6.902;2023-03-04T03:29:00;101624.41;;;2.83;100.00
4836;BME280;66719;51.226;6.902;2023-03-04T03:31:27;101624.47;;;2.86;100.00
4836;BME280;66719;51.226;6.902;2023-03-04T03:33:54;101625.34;;;2.87;100.00
4836;BME280;66719;51.226;6.902;2023-03-04T03:36:20;101627.16;;;2.89;100.00
4836;BME280;66719;51.226;6.902;2023-03-04T03:38:47;101625.41;;;2.88;100.00
4836;BME280;66719;51.226;6.902;2023-03-04T03:41:13;101630.59;;;2.88;100.00
4836;BME280;66719;51.226;6.902;2023-03-04T03:43:40;101628.03;;;2.90;100.00
4836;BME280;66719;51.226;6.902;2023-03-04T03:46:06;101623.78;;;2.92;100.00
4836;BME280;66719;51.226;6.902;2023-03-04T03:48:33;101620.31;;;2.91;100.00
4836;BME280;66719;51.226;6.902;2023-03-04T03:51:00;101619.53;;;2.95;100.00
4836;BME280;66719;51.226;6.902;2023-03-04T03:53:27;101622.19;;;2.97;100.00
4836;BME280;66719;51.226;6.902;2023-03-04T03:55:53;101622.13;;;2.95;100.00
4836;BME280;66719;51.226;6.902;2023-03-04T03:58:20;101625.63;;;2.96;100.00
4836;BME280;66719;51.226;6.902;2023-03-04T04:00:46;101618.75;;;2.96;100.00
4836;BME280;66719;51.226;6.902;2023-03-04T04:03:14;101616.16;;;2.96;100.00
4836;BME280;66719;51.226;6.902;2023-03-04T04:05:41;101623.91;;;2.96;100.00
4836;BME280;66719;51.226;6.902;2023-03-04T04:08:12;101623.97;;;2.99;100.00
4836;BME280;66719;51.226;6.902;2023-03-04T04:10:40;101620.59;;;3.02;100.00
4836;BME280;66719;51.226;6.902;2023-03-04T04:13:07;101621.47;;;3.02;100.00
4836;BME280;66719;51.226;6.902;2023-03-04T04:15:34;101625.00;;;3.04;100.00
4836;BME280;66719;51.226;6.902;2023-03-04T04:18:00;101617.28;;;3.06;100.00
4836;BME280;66719;51.226;6.902;2023-03-04T04:20:27;101620.75;;;3.08;100.00
4836;BME280;66719;51.226;6.902;2023-03-04T04:22:53;101617.34;;;3.09;100.00
4836;BME280;66719;51.226;6.902;2023-03-04T04:25:19;101619.94;;;3.09;100.00
4836;BME280;66719;51.226;6.902;2023-03-04T04:27:46;101613.88;;;3.08;100.00
4836;BME280;66719;51.226;6.902;2023-03-04T04:30:13;101613.91;;;3.10;100.00
4836;BME280;66719;51.226;6.902;2023-03-04T04:32:39;101618.38;;;3.16;100.00
4836;BME280;66719;51.226;6.902;2023-03-04T04:35:07;101618.44;;;3.19;100.00
4836;BME280;66719;51.226;6.902;2023-03-04T04:37:33;101618.56;;;3.22;100.00
4836;BME280;66719;51.226;6.902;2023-03-04T04:40:00;101621.06;;;3.20;100.00
4836;BME280;66719;51.226;6.902;2023-03-04T04:42:27;101617.72;;;3.23;100.00
4836;BME280;66719;51.226;6.902;2023-03-04T04:44:54;101616.00;;;3.23;100.00
4836;BME280;66719;51.226;6.902;2023-03-04T04:47:22;101616.03;;;3.25;100.00
4836;BME280;66719;51.226;6.902;2023-03-04T04:49:48;101623.09;;;3.30;100.00
4836;BME280;66719;51.226;6.902;2023-03-04T04:52:15;101618.78;;;3.31;100.00
4836;BME280;66719;51.226;6.902;2023-03-04T04:54:41;101621.38;;;3.31;100.00
4836;BME280;66719;51.226;6.902;2023-03-04T04:57:08;101623.13;;;3.32;100.00
4836;BME280;66719;51.226;6.902;2023-03-04T04:59:34;101618.91;;;3.37;100.00
4836;BME280;66719;51.226;6.902;2023-03-04T05:02:01;101625.84;;;3.38;100.00
4836;BME280;66719;51.226;6.902;2023-03-04T05:04:27;101621.66;;;3.43;100.00
4836;BME280;66719;51.226;6.902;2023-03-04T05:06:54;101632.03;;;3.43;100.00
4836;BME280;66719;51.226;6.902;2023-03-04T05:09:20;101625.09;;;3.42;100.00
4836;BME280;66719;51.226;6.902;2023-03-04T05:11:48;101625.94;;;3.41;100.00
4836;BME280;66719;51.226;6.902;2023-03-04T05:14:15;101622.50;;;3.42;100.00
4836;BME280;66719;51.226;6.902;2023-03-04T05:16:41;101621.63;;;3.42;100.00
4836;BME280;66719;51.226;6.902;2023-03-04T05:19:08;101631.19;;;3.44;100.00
4836;BME280;66719;51.226;6.902;2023-03-04T05:21:34;101623.41;;;3.44;100.00
4836;BME280;66719;51.226;6.902;2023-03-04T05:24:01;101624.25;;;3.43;100.00
4836;BME280;66719;51.226;6.902;2023-03-04T05:26:28;101622.50;;;3.42;100.00
4836;BME280;66719;51.226;6.902;2023-03-04T05:28:54;101627.69;;;3.42;100.00
4836;BME280;66719;51.226;6.902;2023-03-04T05:31:20;101622.50;;;3.42;100.00
4836;BME280;66719;51.226;6.902;2023-03-04T05:33:47;101625.97;;;3.43;100.00
4836;BME280;66719;51.226;6.902;2023-03-04T05:36:14;101627.66;;;3.40;100.00
4836;BME280;66719;51.226;6.902;2023-03-04T05:38:40;101628.63;;;3.46;100.00
4836;BME280;66719;51.226;6.902;2023-03-04T05:41:07;101629.59;;;3.49;100.00
4836;BME280;66719;51.226;6.902;2023-03-04T05:43:34;101632.25;;;3.52;100.00
4836;BME280;66719;51.226;6.902;2023-03-04T05:46:02;101627.09;;;3.54;100.00
4836;BME280;66719;51.226;6.902;2023-03-04T05:48:29;101627.94;;;3.53;100.00
4836;BME280;66719;51.226;6.902;2023-03-04T05:50:58;101627.94;;;3.53;100.00
4836;BME280;66719;51.226;6.902;2023-03-04T05:53:25;101627.19;;;3.57;100.00
4836;BME280;66719;51.226;6.902;2023-03-04T05:55:52;101627.31;;;3.61;100.00
4836;BME280;66719;51.226;6.902;2023-03-04T05:58:20;101634.22;;;3.62;100.00
4836;BME280;66719;51.226;6.902;2023-03-04T06:00:46;101637.66;;;3.61;100.00
4836;BME280;66719;51.226;6.902;2023-03-04T06:03:17;101632.47;;;3.61;100.00
4836;BME280;66719;51.226;6.902;2023-03-04T06:05:44;101629.84;;;3.60;100.00
4836;BME280;66719;51.226;6.902;2023-03-04T06:08:11;101631.66;;;3.64;100.00
4836;BME280;66719;51.226;6.902;2023-03-04T06:10:39;101631.72;;;3.65;100.00
4836;BME280;66719;51.226;6.902;2023-03-04T06:13:06;101628.31;;;3.66;100.00
4836;BME280;66719;51.226;6.902;2023-03-04T06:15:33;101642.97;;;3.66;100.00
4836;BME280;66719;51.226;6.902;2023-03-04T06:18:00;101635.19;;;3.66;100.00
4836;BME280;66719;51.226;6.902;2023-03-04T06:20:27;101643.84;;;3.66;100.00
4836;BME280;66719;51.226;6.902;2023-03-04T06:22:53;101645.59;;;3.67;100.00
4836;BME280;66719;51.226;6.902;2023-03-04T06:25:20;101646.47;;;3.68;100.00
4836;BME280;66719;51.226;6.902;2023-03-04T06:27:47;101651.72;;;3.73;100.00
4836;BME280;66719;51.226;6.902;2023-03-04T06:30:16;101654.31;;;3.73;100.00
4836;BME280;66719;51.226;6.902;2023-03-04T06:32:43;101655.19;;;3.73;100.00
4836;BME280;66719;51.226;6.902;2023-03-04T06:35:10;101655.16;;;3.72;100.00
4836;BME280;66719;51.226;6.902;2023-03-04T06:37:37;101656.97;;;3.74;100.00
4836;BME280;66719;51.226;6.902;2023-03-04T06:40:04;101654.28;;;3.71;100.00
4836;BME280;66719;51.226;6.902;2023-03-04T06:42:33;101662.06;;;3.71;100.00
4836;BME280;66719;51.226;6.902;2023-03-04T06:45:00;101657.75;;;3.72;100.00
4836;BME280;66719;51.226;6.902;2023-03-04T06:47:27;101669.16;;;3.78;100.00
4836;BME280;66719;51.226;6.902;2023-03-04T06:49:54;101669.19;;;3.80;100.00
4836;BME280;66719;51.226;6.902;2023-03-04T06:52:21;101666.53;;;3.77;100.00
4836;BME280;66719;51.226;6.902;2023-03-04T06:54:47;101663.94;;;3.77;100.00
4836;BME280;66719;51.226;6.902;2023-03-04T06:57:14;101669.06;;;3.75;100.00
4836;BME280;66719;51.226;6.902;2023-03-04T06:59:40;101668.19;;;3.75;100.00
4836;BME280;66719;51.226;6.902;2023-03-04T07:02:10;101669.06;;;3.75;100.00
4836;BME280;66719;51.226;6.902;2023-03-04T07:04:37;101675.09;;;3.74;100.00
4836;BME280;66719;51.226;6.902;2023-03-04T07:07:04;101675.13;;;3.76;100.00
4836;BME280;66719;51.226;6.902;2023-03-04T07:09:30;101671.72;;;3.78;100.00
4836;BME280;66719;51.226;6.902;2023-03-04T07:11:57;101674.47;;;3.84;100.00
4836;BME280;66719;51.226;6.902;2023-03-04T07:14:23;101675.25;;;3.82;100.00
4836;BME280;66719;51.226;6.902;2023-03-04T07:16:50;101675.25;;;3.82;100.00
4836;BME280;66719;51.226;6.902;2023-03-04T07:19:16;101676.94;;;3.80;100.00
4836;BME280;66719;51.226;6.902;2023-03-04T07:21:43;101677.84;;;3.82;100.00
4836;BME280;66719;51.226;6.902;2023-03-04T07:24:09;101675.38;;;3.86;100.00
4836;BME280;66719;51.226;6.902;2023-03-04T07:26:36;101680.53;;;3.85;100.00
4836;BME280;66719;51.226;6.902;2023-03-04T07:29:04;101678.84;;;3.87;100.00
4836;BME280;66719;51.226;6.902;2023-03-04T07:31:33;101681.44;;;3.87;100.00
4836;BME280;66719;51.226;6.902;2023-03-04T07:34:03;101684.00;;;3.85;100.00
4836;BME280;66719;51.226;6.902;2023-03-04T07:36:30;101687.44;;;3.84;100.00
4836;BME280;66719;51.226;6.902;2023-03-04T07:38:56;101677.13;;;3.87;100.00
4836;BME280;66719;51.226;6.902;2023-03-04T07:41:24;101678.13;;;3.92;100.00
4836;BME280;66719;51.226;6.902;2023-03-04T07:43:51;101690.22;;;3.92;100.00
4836;BME280;66719;51.226;6.902;2023-03-04T07:46:18;101693.81;;;3.98;100.00
4836;BME280;66719;51.226;6.902;2023-03-04T07:48:45;101689.59;;;4.02;100.00
4836;BME280;66719;51.226;6.902;2023-03-04T07:51:16;101695.66;;;4.03;100.00
4836;BME280;66719;51.226;6.902;2023-03-04T07:53:46;101692.31;;;4.08;100.00
4836;BME280;66719;51.226;6.902;2023-03-04T07:56:16;101694.03;;;4.08;100.00
4836;BME280;66719;51.226;6.902;2023-03-04T07:58:43;101695.81;;;4.10;100.00
4836;BME280;66719;51.226;6.902;2023-03-04T08:01:12;101695.88;;;4.13;100.00
4836;BME280;66719;51.226;6.902;2023-03-04T08:03:39;101695.03;;;4.13;100.00
4836;BME280;66719;51.226;6.902;2023-03-04T08:06:09;101696.78;;;4.15;100.00
4836;BME280;66719;51.226;6.902;2023-03-04T08:08:37;101705.56;;;4.20;100.00
4836;BME280;66719;51.226;6.902;2023-03-04T08:11:12;101704.78;;;4.24;100.00
4836;BME280;66719;51.226;6.902;2023-03-04T08:13:39;101697.00;;;4.24;100.00
4836;BME280;66719;51.226;6.902;2023-03-04T08:16:06;101707.50;;;4.29;100.00
4836;BME280;66719;51.226;6.902;2023-03-04T08:18:33;101704.03;;;4.29;100.00
4836;BME280;66719;51.226;6.902;2023-03-04T08:20:59;101701.34;;;4.25;100.00
4836;BME280;66719;51.226;6.902;2023-03-04T08:23:26;101694.41;;;4.24;100.00
4836;BME280;66719;51.226;6.902;2023-03-04T08:25:52;101696.22;;;4.27;100.00
4836;BME280;66719;51.226;6.902;2023-03-04T08:28:19;101697.16;;;4.31;100.00
4836;BME280;66719;51.226;6.902;2023-03-04T08:30:51;101699.88;;;4.35;100.00
4836;BME280;66719;51.226;6.902;2023-03-04T08:33:18;101695.63;;;4.39;100.00
4836;BME280;66719;51.226;6.902;2023-03-04T08:35:44;101704.31;;;4.42;100.00
4836;BME280;66719;51.226;6.902;2023-03-04T08:38:11;101698.34;;;4.45;100.00
4836;BME280;66719;51.226;6.902;2023-03-04T08:40:37;101702.75;;;4.49;100.00
4836;BME280;66719;51.226;6.902;2023-03-04T08:43:04;101701.13;;;4.52;100.00
4836;BME280;66719;51.226;6.902;2023-03-04T08:45:30;101690.81;;;4.56;100.00
4836;BME280;66719;51.226;6.902;2023-03-04T08:47:57;101693.53;;;4.62;100.00
4836;BME280;66719;51.226;6.902;2023-03-04T08:50:24;101696.19;;;4.65;100.00
4836;BME280;66719;51.226;6.902;2023-03-04T08:52:52;101703.19;;;4.69;100.00
4836;BME280;66719;51.226;6.902;2023-03-04T08:55:19;101690.13;;;4.64;100.00
4836;BME280;66719;51.226;6.902;2023-03-04T08:57:45;101695.31;;;4.64;100.00
4836;BME280;66719;51.226;6.902;2023-03-04T09:00:12;101696.19;;;4.65;100.00
4836;BME280;66719;51.226;6.902;2023-03-04T09:02:39;101692.88;;;4.70;100.00
4836;BME280;66719;51.226;6.902;2023-03-04T09:05:06;101692.06;;;4.74;100.00
4836;BME280;66719;51.226;6.902;2023-03-04T09:07:32;101687.75;;;4.75;100.00
4836;BME280;66719;51.226;6.902;2023-03-04T09:09:59;101698.97;;;4.74;100.00
4836;BME280;66719;51.226;6.902;2023-03-04T09:12:25;101693.72;;;4.71;100.00
4836;BME280;66719;51.226;6.902;2023-03-04T09:14:52;101691.13;;;4.69;100.00
4836;BME280;66719;51.226;6.902;2023-03-04T09:17:36;101696.25;;;4.68;100.00
4836;BME280;66719;51.226;6.902;2023-03-04T09:20:03;101697.97;;;4.67;100.00
4836;BME280;66719;51.226;6.902;2023-03-04T09:22:30;101702.28;;;4.67;100.00
4836;BME280;66719;51.226;6.902;2023-03-04T09:24:57;101698.03;;;4.70;100.00
4836;BME280;66719;51.226;6.902;2023-03-04T09:27:23;101707.56;;;4.71;100.00
4836;BME280;66719;51.226;6.902;2023-03-04T09:29:49;101704.09;;;4.69;100.00
4836;BME280;66719;51.226;6.902;2023-03-04T09:32:16;101703.19;;;4.69;100.00
4836;BME280;66719;51.226;6.902;2023-03-04T09:34:43;101717.84;;;4.68;100.00
4836;BME280;66719;51.226;6.902;2023-03-04T09:37:09;101702.28;;;4.67;100.00
4836;BME280;66719;51.226;6.902;2023-03-04T09:39:36;101719.47;;;4.62;100.00
4836;BME280;66719;51.226;6.902;2023-03-04T09:42:05;101713.31;;;4.58;100.00
4836;BME280;66719;51.226;6.902;2023-03-04T09:44:39;101699.59;;;4.62;100.00
4836;BME280;66719;51.226;6.902;2023-03-04T09:47:10;101703.16;;;4.67;100.00
4836;BME280;66719;51.226;6.902;2023-03-04T09:49:40;101694.50;;;4.67;100.00
4836;BME280;66719;51.226;6.902;2023-03-04T09:55:11;101700.66;;;4.72;100.00
4836;BME280;66719;51.226;6.902;2023-03-04T10:00:30;101695.66;;;4.79;100.00
4836;BME280;66719;51.226;6.902;2023-03-04T10:03:16;101694.84;;;4.83;100.00
4836;BME280;66719;51.226;6.902;2023-03-04T10:11:19;101689.78;;;4.90;100.00
4836;BME280;66719;51.226;6.902;2023-03-04T10:14:00;101682.84;;;4.89;100.00
4836;BME280;66719;51.226;6.902;2023-03-04T10:16:33;101682.03;;;4.91;100.00
4836;BME280;66719;51.226;6.902;2023-03-04T10:21:45;101684.03;;;5.04;100.00
4836;BME280;66719;51.226;6.902;2023-03-04T10:24:14;101672.72;;;5.02;100.00
4836;BME280;66719;51.226;6.902;2023-03-04T10:26:45;101674.53;;;5.05;100.00
4836;BME280;66719;51.226;6.902;2023-03-04T10:29:15;101672.97;;;5.13;100.00
4836;BME280;66719;51.226;6.902;2023-03-04T10:31:42;101670.56;;;5.24;100.00
4836;BME280;66719;51.226;6.902;2023-03-04T10:34:11;101678.38;;;5.25;100.00
4836;BME280;66719;51.226;6.902;2023-03-04T10:36:45;101672.34;;;5.26;100.00
4836;BME280;66719;51.226;6.902;2023-03-04T10:42:00;101667.25;;;5.31;100.00
4836;BME280;66719;51.226;6.902;2023-03-04T10:44:29;101666.47;;;5.38;100.00
4836;BME280;66719;51.226;6.902;2023-03-04T10:46:56;101663.13;;;5.44;100.00
4836;BME280;66719;51.226;6.902;2023-03-04T10:49:24;101647.66;;;5.50;100.00
4836;BME280;66719;51.226;6.902;2023-03-04T10:51:59;101653.78;;;5.55;100.00
4836;BME280;66719;51.226;6.902;2023-03-04T10:54:40;101656.47;;;5.59;100.00
4836;BME280;66719;51.226;6.902;2023-03-04T10:57:19;101659.19;;;5.65;100.00
4836;BME280;66719;51.226;6.902;2023-03-04T10:59:48;101646.31;;;5.73;100.00
4836;BME280;66719;51.226;6.902;2023-03-04T11:02:28;101654.22;;;5.81;100.00
4836;BME280;66719;51.226;6.902;2023-03-04T11:07:47;101643.78;;;5.78;100.00
4836;BME280;66719;51.226;6.902;2023-03-04T11:10:24;101648.94;;;5.75;100.00
4836;BME280;66719;51.226;6.902;2023-03-04T11:12:55;101638.47;;;5.70;100.00
4836;BME280;66719;51.226;6.902;2023-03-04T11:15:26;101650.56;;;5.68;100.00
4836;BME280;66719;51.226;6.902;2023-03-04T11:17:58;101643.59;;;5.65;100.00
4836;BME280;66719;51.226;6.902;2023-03-04T11:20:30;101638.44;;;5.67;100.00
4836;BME280;66719;51.226;6.902;2023-03-04T11:23:04;101644.53;;;5.69;100.00
4836;BME280;66719;51.226;6.902;2023-03-04T11:25:35;101639.44;;;5.75;100.00
4836;BME280;66719;51.226;6.902;2023-03-04T11:31:04;101634.72;;;6.04;100.00
4836;BME280;66719;51.226;6.902;2023-03-04T11:39:38;101620.84;;;6.04;100.00
4836;BME280;66719;51.226;6.902;2023-03-04T11:44:55;101621.66;;;6.00;100.00
4836;BME280;66719;51.226;6.902;2023-03-04T11:50:11;101620.81;;;6.02;100.00
4836;BME280;66719;51.226;6.902;2023-03-04T11:53:00;101629.50;;;6.03;100.00
4836;BME280;66719;51.226;6.902;2023-03-04T11:55:33;101614.91;;;6.14;100.00
4836;BME280;66719;51.226;6.902;2023-03-04T12:06:47;101597.03;;;6.37;100.00
4836;BME280;66719;51.226;6.902;2023-03-04T12:31:31;101556.22;;;6.31;100.00
4836;BME280;66719;51.226;6.902;2023-03-04T12:37:23;101553.59;;;6.31;100.00
4836;BME280;66719;51.226;6.902;2023-03-04T12:43:10;101561.47;;;6.36;100.00
4836;BME280;66719;51.226;6.902;2023-03-04T12:45:44;101548.47;;;6.36;100.00
4836;BME280;66719;51.226;6.902;2023-03-04T12:56:48;101535.56;;;6.43;100.00
4836;BME280;66719;51.226;6.902;2023-03-04T12:59:19;101533.00;;;6.46;100.00
4836;BME280;66719;51.226;6.902;2023-03-04T13:07:25;101529.53;;;6.49;100.00
4836;BME280;66719;51.226;6.902;2023-03-04T13:10:03;101528.72;;;6.51;100.00
4836;BME280;66719;51.226;6.902;2023-03-04T13:12:52;101520.94;;;6.51;100.00
4836;BME280;66719;51.226;6.902;2023-03-04T13:18:31;101525.19;;;6.46;100.00
4836;BME280;66719;51.226;6.902;2023-03-04T13:20:38;101529.50;;;6.43;100.00
4836;BME280;66719;51.226;6.902;2023-03-04T13:43:27;101508.38;;;6.17;100.00
4836;BME280;66719;51.226;6.902;2023-03-04T13:56:46;101496.28;;;6.20;100.00
4836;BME280;66719;51.226;6.902;2023-03-04T13:59:20;101486.78;;;6.24;100.00
4836;BME280;66719;51.226;6.902;2023-03-04T14:01:50;101489.44;;;6.27;100.00
4836;BME280;66719;51.226;6.902;2023-03-04T14:04:22;101484.25;;;6.30;100.00
4836;BME280;66719;51.226;6.902;2023-03-04T14:06:51;101482.59;;;6.35;100.00
4836;BME280;66719;51.226;6.902;2023-03-04T14:09:21;101482.69;;;6.43;100.00
4836;BME280;66719;51.226;6.902;2023-03-04T14:11:50;101473.16;;;6.46;100.00
4836;BME280;66719;51.226;6.902;2023-03-04T14:14:26;101479.22;;;6.45;100.00
4836;BME280;66719;51.226;6.902;2023-03-04T14:16:57;101477.50;;;6.47;100.00
4836;BME280;66719;51.226;6.902;2023-03-04T14:19:27;101468.84;;;6.50;100.00
4836;BME280;66719;51.226;6.902;2023-03-04T14:21:55;101467.13;;;6.50;100.00
4836;BME280;66719;51.226;6.902;2023-03-04T14:24:22;101468.84;;;6.48;100.00
4836;BME280;66719;51.226;6.902;2023-03-04T14:26:49;101461.91;;;6.46;100.00
4836;BME280;66719;51.226;6.902;2023-03-04T14:29:31;101461.88;;;6.44;100.00
4836;BME280;66719;51.226;6.902;2023-03-04T14:31:58;101463.56;;;6.42;100.00
4836;BME280;66719;51.226;6.902;2023-03-04T14:34:31;101459.28;;;6.44;100.00
4836;BME280;66719;51.226;6.902;2023-03-04T14:37:03;101458.44;;;6.48;100.00
4836;BME280;66719;51.226;6.902;2023-03-04T14:39:43;101453.25;;;6.50;100.00
4836;BME280;66719;51.226;6.902;2023-03-04T14:42:12;101448.97;;;6.54;100.00
4836;BME280;66719;51.226;6.902;2023-03-04T14:44:43;101447.25;;;6.54;100.00
4836;BME280;66719;51.226;6.902;2023-03-04T14:47:23;101442.03;;;6.56;100.00
4836;BME280;66719;51.226;6.902;2023-03-04T14:49:54;101430.78;;;6.58;100.00
4836;BME280;66719;51.226;6.902;2023-03-04T14:52:40;101431.66;;;6.57;100.00
4836;BME280;66719;51.226;6.902;2023-03-04T14:55:17;101436.00;;;6.60;100.00
4836;BME280;66719;51.226;6.902;2023-03-04T14:57:51;101432.53;;;6.58;100.00
4836;BME280;66719;51.226;6.902;2023-03-04T15:00:30;101433.44;;;6.61;100.00
4836;BME280;66719;51.226;6.902;2023-03-04T15:03:05;101429.06;;;6.60;100.00
4836;BME280;66719;51.226;6.902;2023-03-04T15:05:34;101428.16;;;6.55;100.00
4836;BME280;66719;51.226;6.902;2023-03-04T15:08:04;101429.84;;;6.48;100.00
4836;BME280;66719;51.226;6.902;2023-03-04T15:10:36;101423.72;;;6.43;100.00